sensor_id;sensor_type;location;lat;lon;timestamp;temperature;humidity
3256;DHT22;1640;48.504;9.224;2022-11-18T00:01:22;8.40;99.90
3256;DHT22;1640;48.504;9.224;2022-11-18T00:03:50;8.40;99.90
3256;DHT22;1640;48.504;9.224;2022-11-18T00:06:20;8.40;99.90
3256;DHT22;1640;48.504;9.224;2022-11-18T00:08:48;8.40;99.90
3256;DHT22;1640;48.504;9.224;2022-11-18T00:11:29;8.40;99.90
3256;DHT22;1640;48.504;9.224;2022-11-18T00:14:19;8.50;99.90
3256;DHT22;1640;48.504;9.224;2022-11-18T00:16:50;8.50;99.90
3256;DHT22;1640;48.504;9.224;2022-11-18T00:19:18;8.60;99.90
3256;DHT22;1640;48.504;9.224;2022-11-18T00:21:46;8.50;99.90
3256;DHT22;1640;48.504;9.224;2022-11-18T00:24:14;8.50;99.90
3256;DHT22;1640;48.504;9.224;2022-11-18T00:26:41;8.60;99.90
3256;DHT22;1640;48.504;9.224;2022-11-18T00:29:09;8.50;99.90
3256;DHT22;1640;48.504;9.224;2022-11-18T00:31:52;8.40;99.90
3256;DHT22;1640;48.504;9.224;2022-11-18T00:34:20;8.50;99.90
3256;DHT22;1640;48.504;9.224;2022-11-18T00:36:56;8.50;99.90
3256;DHT22;1640;48.504;9.224;2022-11-18T00:39:26;8.50;99.90
3256;DHT22;1640;48.504;9.224;2022-11-18T00:41:53;8.40;99.90
3256;DHT22;1640;48.504;9.224;2022-11-18T00:44:38;8.40;99.90
3256;DHT22;1640;48.504;9.224;2022-11-18T00:47:07;8.30;99.90
3256;DHT22;1640;48.504;9.224;2022-11-18T00:49:35;8.40;99.90
3256;DHT22;1640;48.504;9.224;2022-11-18T00:52:03;8.40;99.90
3256;DHT22;1640;48.504;9.224;2022-11-18T00:54:30;8.40;99.90
3256;DHT22;1640;48.504;9.224;2022-11-18T00:56:58;8.40;99.90
3256;DHT22;1640;48.504;9.224;2022-11-18T00:59:32;8.30;99.90
3256;DHT22;1640;48.504;9.224;2022-11-18T01:02:00;8.20;99.90
3256;DHT22;1640;48.504;9.224;2022-11-18T01:04:29;8.30;99.90
3256;DHT22;1640;48.504;9.224;2022-11-18T01:07:03;8.30;99.90
3256;DHT22;1640;48.504;9.224;2022-11-18T01:09:31;8.30;99.90
3256;DHT22;1640;48.504;9.224;2022-11-18T01:11:59;8.20;99.90
3256;DHT22;1640;48.504;9.224;2022-11-18T01:14:43;8.10;99.90
3256;DHT22;1640;48.504;9.224;2022-11-18T01:17:13;8.00;99.90
3256;DHT22;1640;48.504;9.224;2022-11-18T01:19:49;7.90;99.90
3256;DHT22;1640;48.504;9.224;2022-11-18T01:22:24;7.90;99.90
3256;DHT22;1640;48.504;9.224;2022-11-18T01:24:51;8.00;99.90
3256;DHT22;1640;48.504;9.224;2022-11-18T01:27:32;8.10;99.90
3256;DHT22;1640;48.504;9.224;2022-11-18T01:30:00;8.10;99.90
3256;DHT22;1640;48.504;9.224;2022-11-18T01:32:36;8.10;99.90
3256;DHT22;1640;48.504;9.224;2022-11-18T01:35:06;8.20;99.90
3256;DHT22;1640;48.504;9.224;2022-11-18T01:37:47;8.20;99.90
3256;DHT22;1640;48.504;9.224;2022-11-18T01:40:32;8.30;99.90
3256;DHT22;1640;48.504;9.224;2022-11-18T01:43:15;8.30;99.90
3256;DHT22;1640;48.504;9.224;2022-11-18T01:45:45;8.10;99.90
3256;DHT22;1640;48.504;9.224;2022-11-18T01:48:16;8.10;99.90
3256;DHT22;1640;48.504;9.224;2022-11-18T01:50:49;8.20;99.90
3256;DHT22;1640;48.504;9.224;2022-11-18T01:53:22;8.20;99.90
3256;DHT22;1640;48.504;9.224;2022-11-18T01:55:54;8.20;99.90
3256;DHT22;1640;48.504;9.224;2022-11-18T01:58:39;8.20;99.90
3256;DHT22;1640;48.504;9.224;2022-11-18T02:01:07;8.10;99.90
3256;DHT22;1640;48.504;9.224;2022-11-18T02:03:35;8.10;99.90
3256;DHT22;1640;48.504;9.224;2022-11-18T02:06:05;8.10;99.90
3256;DHT22;1640;48.504;9.224;2022-11-18T02:08:48;8.10;99.90
3256;DHT22;1640;48.504;9.224;2022-11-18T02:11:16;8.20;99.90
3256;DHT22;1640;48.504;9.224;2022-11-18T02:14:03;8.20;99.90
3256;DHT22;1640;48.504;9.224;2022-11-18T02:17:03;8.20;99.90
3256;DHT22;1640;48.504;9.224;2022-11-18T02:23:07;8.40;99.90
3256;DHT22;1640;48.504;9.224;2022-11-18T02:25:51;8.30;99.90
3256;DHT22;1640;48.504;9.224;2022-11-18T02:28:34;8.20;99.90
3256;DHT22;1640;48.504;9.224;2022-11-18T02:31:06;8.30;99.90
3256;DHT22;1640;48.504;9.224;2022-11-18T02:33:39;8.30;99.90
3256;DHT22;1640;48.504;9.224;2022-11-18T02:36:28;8.30;99.90
3256;DHT22;1640;48.504;9.224;2022-11-18T02:39:01;8.40;99.90
3256;DHT22;1640;48.504;9.224;2022-11-18T02:41:40;8.40;99.90
3256;DHT22;1640;48.504;9.224;2022-11-18T02:44:24;8.40;99.90
3256;DHT22;1640;48.504;9.224;2022-11-18T02:46:56;8.40;99.90
3256;DHT22;1640;48.504;9.224;2022-11-18T02:49:42;8.30;99.90
3256;DHT22;1640;48.504;9.224;2022-11-18T02:52:12;8.20;99.90
3256;DHT22;1640;48.504;9.224;2022-11-18T02:54:43;8.20;99.90
3256;DHT22;1640;48.504;9.224;2022-11-18T02:57:12;8.10;99.90
3256;DHT22;1640;48.504;9.224;2022-11-18T02:59:41;8.10;99.90
3256;DHT22;1640;48.504;9.224;2022-11-18T03:02:24;8.10;99.90
3256;DHT22;1640;48.504;9.224;2022-11-18T03:04:54;8.10;99.90
3256;DHT22;1640;48.504;9.224;2022-11-18T03:07:26;8.10;99.90
3256;DHT22;1640;48.504;9.224;2022-11-18T03:10:09;8.00;99.90
3256;DHT22;1640;48.504;9.224;2022-11-18T03:12:41;7.90;99.90
3256;DHT22;1640;48.504;9.224;2022-11-18T03:15:15;8.00;99.90
3256;DHT22;1640;48.504;9.224;2022-11-18T03:17:57;8.00;99.90
3256;DHT22;1640;48.504;9.224;2022-11-18T03:20:29;8.10;99.90
3256;DHT22;1640;48.504;9.224;2022-11-18T03:23:03;8.10;99.90
3256;DHT22;1640;48.504;9.224;2022-11-18T03:25:39;8.10;99.90
3256;DHT22;1640;48.504;9.224;2022-11-18T03:28:15;8.10;99.90
3256;DHT22;1640;48.504;9.224;2022-11-18T03:31:03;8.10;99.90
3256;DHT22;1640;48.504;9.224;2022-11-18T03:33:49;8.10;99.90
3256;DHT22;1640;48.504;9.224;2022-11-18T03:36:19;8.10;99.90
3256;DHT22;1640;48.504;9.224;2022-11-18T03:38:51;8.00;99.90
3256;DHT22;1640;48.504;9.224;2022-11-18T03:41:36;8.00;99.90
3256;DHT22;1640;48.504;9.224;2022-11-18T03:44:18;8.10;99.90
3256;DHT22;1640;48.504;9.224;2022-11-18T03:47:04;8.10;99.90
3256;DHT22;1640;48.504;9.224;2022-11-18T03:49:42;8.20;99.90
3256;DHT22;1640;48.504;9.224;2022-11-18T03:52:20;8.20;99.90
3256;DHT22;1640;48.504;9.224;2022-11-18T03:54:58;8.20;99.90
3256;DHT22;1640;48.504;9.224;2022-11-18T03:57:47;8.20;99.90
3256;DHT22;1640;48.504;9.224;2022-11-18T04:00:34;8.10;99.90
3256;DHT22;1640;48.504;9.224;2022-11-18T04:03:12;8.00;99.90
3256;DHT22;1640;48.504;9.224;2022-11-18T04:06:05;8.10;99.90
3256;DHT22;1640;48.504;9.224;2022-11-18T04:08:54;8.20;99.90
3256;DHT22;1640;48.504;9.224;2022-11-18T04:11:25;8.20;99.90
3256;DHT22;1640;48.504;9.224;2022-11-18T04:14:12;8.20;99.90
3256;DHT22;1640;48.504;9.224;2022-11-18T04:16:54;8.20;99.90
3256;DHT22;1640;48.504;9.224;2022-11-18T04:19:21;8.20;99.90
3256;DHT22;1640;48.504;9.224;2022-11-18T04:21:50;8.20;99.90
3256;DHT22;1640;48.504;9.224;2022-11-18T04:24:17;8.20;99.90
3256;DHT22;1640;48.504;9.224;2022-11-18T04:26:45;8.10;99.90
3256;DHT22;1640;48.504;9.224;2022-11-18T04:29:12;8.10;99.90
3256;DHT22;1640;48.504;9.224;2022-11-18T04:31:54;8.10;99.90
3256;DHT22;1640;48.504;9.224;2022-11-18T04:34:21;8.10;99.90
3256;DHT22;1640;48.504;9.224;2022-11-18T04:37:04;8.10;99.90
3256;DHT22;1640;48.504;9.224;2022-11-18T04:39:40;8.00;99.90
3256;DHT22;1640;48.504;9.224;2022-11-18T04:42:21;8.00;99.90
3256;DHT22;1640;48.504;9.224;2022-11-18T04:44:48;7.90;99.90
3256;DHT22;1640;48.504;9.224;2022-11-18T04:47:16;7.90;99.90
3256;DHT22;1640;48.504;9.224;2022-11-18T04:49:44;7.90;99.90
3256;DHT22;1640;48.504;9.224;2022-11-18T04:52:13;7.80;99.90
3256;DHT22;1640;48.504;9.224;2022-11-18T04:54:54;7.80;99.90
3256;DHT22;1640;48.504;9.224;2022-11-18T04:57:22;7.80;99.90
3256;DHT22;1640;48.504;9.224;2022-11-18T04:59:49;7.60;99.90
3256;DHT22;1640;48.504;9.224;2022-11-18T05:02:30;7.40;99.90
3256;DHT22;1640;48.504;9.224;2022-11-18T05:04:58;7.40;99.90
3256;DHT22;1640;48.504;9.224;2022-11-18T05:07:40;7.40;99.90
3256;DHT22;1640;48.504;9.224;2022-11-18T05:10:21;7.40;99.90
3256;DHT22;1640;48.504;9.224;2022-11-18T05:12:49;7.30;99.90
3256;DHT22;1640;48.504;9.224;2022-11-18T05:15:16;7.40;99.90
3256;DHT22;1640;48.504;9.224;2022-11-18T05:17:44;7.40;99.90
3256;DHT22;1640;48.504;9.224;2022-11-18T05:20:11;7.40;99.90
3256;DHT22;1640;48.504;9.224;2022-11-18T05:23:02;7.50;99.90
3256;DHT22;1640;48.504;9.224;2022-11-18T05:25:32;7.50;99.90
3256;DHT22;1640;48.504;9.224;2022-11-18T05:28:01;7.50;99.90
3256;DHT22;1640;48.504;9.224;2022-11-18T05:30:29;7.50;99.90
3256;DHT22;1640;48.504;9.224;2022-11-18T05:33:10;7.50;99.90
3256;DHT22;1640;48.504;9.224;2022-11-18T05:35:40;7.60;99.90
3256;DHT22;1640;48.504;9.224;2022-11-18T05:38:09;7.60;99.90
3256;DHT22;1640;48.504;9.224;2022-11-18T05:40:50;7.70;99.90
3256;DHT22;1640;48.504;9.224;2022-11-18T05:43:32;7.60;99.90
3256;DHT22;1640;48.504;9.224;2022-11-18T05:46:00;7.60;99.90
3256;DHT22;1640;48.504;9.224;2022-11-18T05:48:28;7.60;99.90
3256;DHT22;1640;48.504;9.224;2022-11-18T05:50:56;7.70;99.90
3256;DHT22;1640;48.504;9.224;2022-11-18T05:53:38;7.70;99.90
3256;DHT22;1640;48.504;9.224;2022-11-18T05:56:24;7.70;99.90
3256;DHT22;1640;48.504;9.224;2022-11-18T05:58:53;7.70;99.90
3256;DHT22;1640;48.504;9.224;2022-11-18T06:01:37;7.70;99.90
3256;DHT22;1640;48.504;9.224;2022-11-18T06:04:10;7.80;99.90
3256;DHT22;1640;48.504;9.224;2022-11-18T06:06:42;7.80;99.90
3256;DHT22;1640;48.504;9.224;2022-11-18T06:09:11;7.80;99.90
3256;DHT22;1640;48.504;9.224;2022-11-18T06:11:42;7.80;99.90
3256;DHT22;1640;48.504;9.224;2022-11-18T06:14:13;7.90;99.90
3256;DHT22;1640;48.504;9.224;2022-11-18T06:16:46;7.90;99.90
3256;DHT22;1640;48.504;9.224;2022-11-18T06:19:22;7.80;99.90
3256;DHT22;1640;48.504;9.224;2022-11-18T06:21:50;7.80;99.90
3256;DHT22;1640;48.504;9.224;2022-11-18T06:24:19;7.70;99.90
3256;DHT22;1640;48.504;9.224;2022-11-18T06:26:54;7.70;99.90
3256;DHT22;1640;48.504;9.224;2022-11-18T06:29:35;7.70;99.90
3256;DHT22;1640;48.504;9.224;2022-11-18T06:32:03;7.70;99.90
3256;DHT22;1640;48.504;9.224;2022-11-18T06:34:44;7.70;99.90
3256;DHT22;1640;48.504;9.224;2022-11-18T06:37:25;7.70;99.90
3256;DHT22;1640;48.504;9.224;2022-11-18T06:40:10;7.60;99.90
3256;DHT22;1640;48.504;9.224;2022-11-18T06:42:51;7.60;99.90
3256;DHT22;1640;48.504;9.224;2022-11-18T06:45:36;7.60;99.90
3256;DHT22;1640;48.504;9.224;2022-11-18T06:48:17;7.50;99.90
3256;DHT22;1640;48.504;9.224;2022-11-18T06:50:45;7.40;99.90
3256;DHT22;1640;48.504;9.224;2022-11-18T06:53:12;7.30;99.90
3256;DHT22;1640;48.504;9.224;2022-11-18T06:55:55;7.20;99.90
3256;DHT22;1640;48.504;9.224;2022-11-18T06:58:22;7.20;99.90
3256;DHT22;1640;48.504;9.224;2022-11-18T07:00:50;7.20;99.90
3256;DHT22;1640;48.504;9.224;2022-11-18T07:03:17;7.30;99.90
3256;DHT22;1640;48.504;9.224;2022-11-18T07:05:45;7.30;99.90
3256;DHT22;1640;48.504;9.224;2022-11-18T07:08:26;7.40;99.90
3256;DHT22;1640;48.504;9.224;2022-11-18T07:11:10;7.50;99.90
3256;DHT22;1640;48.504;9.224;2022-11-18T07:13:53;7.60;99.90
3256;DHT22;1640;48.504;9.224;2022-11-18T07:16:22;7.60;99.90
3256;DHT22;1640;48.504;9.224;2022-11-18T07:19:11;7.70;99.90
3256;DHT22;1640;48.504;9.224;2022-11-18T07:21:52;7.70;99.90
3256;DHT22;1640;48.504;9.224;2022-11-18T07:24:20;7.80;99.90
3256;DHT22;1640;48.504;9.224;2022-11-18T07:27:02;7.90;99.90
3256;DHT22;1640;48.504;9.224;2022-11-18T07:29:44;8.10;99.90
3256;DHT22;1640;48.504;9.224;2022-11-18T07:32:11;8.00;99.90
3256;DHT22;1640;48.504;9.224;2022-11-18T07:34:53;8.00;99.90
3256;DHT22;1640;48.504;9.224;2022-11-18T07:37:34;7.90;99.90
3256;DHT22;1640;48.504;9.224;2022-11-18T07:40:01;7.90;99.90
3256;DHT22;1640;48.504;9.224;2022-11-18T07:42:30;8.00;99.90
3256;DHT22;1640;48.504;9.224;2022-11-18T07:45:09;8.00;99.90
3256;DHT22;1640;48.504;9.224;2022-11-18T07:47:36;8.00;99.90
3256;DHT22;1640;48.504;9.224;2022-11-18T07:50:18;8.00;99.90
3256;DHT22;1640;48.504;9.224;2022-11-18T07:52:59;8.10;99.90
3256;DHT22;1640;48.504;9.224;2022-11-18T07:55:40;8.10;99.90
3256;DHT22;1640;48.504;9.224;2022-11-18T07:58:11;8.10;99.90
3256;DHT22;1640;48.504;9.224;2022-11-18T08:00:52;8.20;99.90
3256;DHT22;1640;48.504;9.224;2022-11-18T08:03:24;8.10;99.90
3256;DHT22;1640;48.504;9.224;2022-11-18T08:06:07;8.20;99.90
3256;DHT22;1640;48.504;9.224;2022-11-18T08:08:35;8.20;99.90
3256;DHT22;1640;48.504;9.224;2022-11-18T08:11:07;8.20;99.90
3256;DHT22;1640;48.504;9.224;2022-11-18T08:13:40;8.30;99.90
3256;DHT22;1640;48.504;9.224;2022-11-18T08:16:16;8.20;99.90
3256;DHT22;1640;48.504;9.224;2022-11-18T08:18:58;8.20;99.90
3256;DHT22;1640;48.504;9.224;2022-11-18T08:21:39;8.20;99.90
3256;DHT22;1640;48.504;9.224;2022-11-18T08:24:21;8.20;99.90
3256;DHT22;1640;48.504;9.224;2022-11-18T08:27:05;8.20;99.90
3256;DHT22;1640;48.504;9.224;2022-11-18T08:29:33;8.30;99.90
3256;DHT22;1640;48.504;9.224;2022-11-18T08:32:01;8.30;99.90
3256;DHT22;1640;48.504;9.224;2022-11-18T08:34:42;8.30;99.90
3256;DHT22;1640;48.504;9.224;2022-11-18T08:37:10;8.30;99.90
3256;DHT22;1640;48.504;9.224;2022-11-18T08:39:51;8.40;99.90
3256;DHT22;1640;48.504;9.224;2022-11-18T08:42:32;8.40;99.90
3256;DHT22;1640;48.504;9.224;2022-11-18T08:45:15;8.20;99.90
3256;DHT22;1640;48.504;9.224;2022-11-18T08:47:57;8.20;99.90
3256;DHT22;1640;48.504;9.224;2022-11-18T08:53:03;8.20;99.90
3256;DHT22;1640;48.504;9.224;2022-11-18T08:55:31;8.30;99.90
3256;DHT22;1640;48.504;9.224;2022-11-18T08:57:58;8.30;99.90
3256;DHT22;1640;48.504;9.224;2022-11-18T09:00:27;8.40;99.90
3256;DHT22;1640;48.504;9.224;2022-11-18T09:02:55;8.50;99.90
3256;DHT22;1640;48.504;9.224;2022-11-18T09:05:23;8.50;99.90
3256;DHT22;1640;48.504;9.224;2022-11-18T09:07:50;8.60;99.90
3256;DHT22;1640;48.504;9.224;2022-11-18T09:10:18;8.60;99.90
3256;DHT22;1640;48.504;9.224;2022-11-18T09:12:46;8.70;99.90
3256;DHT22;1640;48.504;9.224;2022-11-18T09:15:14;8.70;99.90
3256;DHT22;1640;48.504;9.224;2022-11-18T09:17:43;8.70;99.90
3256;DHT22;1640;48.504;9.224;2022-11-18T09:20:11;8.70;99.90
3256;DHT22;1640;48.504;9.224;2022-11-18T09:22:39;8.80;99.90
3256;DHT22;1640;48.504;9.224;2022-11-18T09:25:07;8.90;99.90
3256;DHT22;1640;48.504;9.224;2022-11-18T09:27:35;8.90;99.90
3256;DHT22;1640;48.504;9.224;2022-11-18T09:30:03;8.90;99.90
3256;DHT22;1640;48.504;9.224;2022-11-18T09:32:31;8.90;99.90
3256;DHT22;1640;48.504;9.224;2022-11-18T09:35:00;8.90;99.90
3256;DHT22;1640;48.504;9.224;2022-11-18T09:37:28;8.90;99.90
3256;DHT22;1640;48.504;9.224;2022-11-18T09:39:56;9.00;99.90
3256;DHT22;1640;48.504;9.224;2022-11-18T09:42:38;9.00;99.90
3256;DHT22;1640;48.504;9.224;2022-11-18T09:45:16;9.10;99.90
3256;DHT22;1640;48.504;9.224;2022-11-18T09:47:46;9.10;99.90
3256;DHT22;1640;48.504;9.224;2022-11-18T09:50:19;9.00;99.90
3256;DHT22;1640;48.504;9.224;2022-11-18T09:52:54;9.10;99.90
3256;DHT22;1640;48.504;9.224;2022-11-18T09:55:27;9.10;99.90
3256;DHT22;1640;48.504;9.224;2022-11-18T09:57:57;9.10;99.90
3256;DHT22;1640;48.504;9.224;2022-11-18T10:00:27;9.00;99.90
3256;DHT22;1640;48.504;9.224;2022-11-18T10:02:59;9.00;99.90
3256;DHT22;1640;48.504;9.224;2022-11-18T10:05:30;9.00;99.90
3256;DHT22;1640;48.504;9.224;2022-11-18T10:08:04;9.00;99.90
3256;DHT22;1640;48.504;9.224;2022-11-18T10:10:44;9.00;99.90
3256;DHT22;1640;48.504;9.224;2022-11-18T10:13:21;8.90;99.90
3256;DHT22;1640;48.504;9.224;2022-11-18T10:15:57;8.90;99.90
3256;DHT22;1640;48.504;9.224;2022-11-18T10:18:29;8.90;99.90
3256;DHT22;1640;48.504;9.224;2022-11-18T10:21:10;8.90;99.90
3256;DHT22;1640;48.504;9.224;2022-11-18T10:23:49;9.00;99.90
3256;DHT22;1640;48.504;9.224;2022-11-18T10:26:36;9.00;99.90
3256;DHT22;1640;48.504;9.224;2022-11-18T10:29:04;9.20;99.90
3256;DHT22;1640;48.504;9.224;2022-11-18T10:31:36;9.10;99.90
3256;DHT22;1640;48.504;9.224;2022-11-18T10:34:04;9.10;99.90
3256;DHT22;1640;48.504;9.224;2022-11-18T10:36:33;9.00;99.90
3256;DHT22;1640;48.504;9.224;2022-11-18T10:39:11;9.10;99.90
3256;DHT22;1640;48.504;9.224;2022-11-18T10:41:45;9.10;99.90
3256;DHT22;1640;48.504;9.224;2022-11-18T10:44:40;9.20;99.90
3256;DHT22;1640;48.504;9.224;2022-11-18T10:47:23;9.30;99.90
3256;DHT22;1640;48.504;9.224;2022-11-18T10:49:52;9.50;99.90
3256;DHT22;1640;48.504;9.224;2022-11-18T10:52:21;9.50;99.90
3256;DHT22;1640;48.504;9.224;2022-11-18T10:55:18;9.60;99.90
3256;DHT22;1640;48.504;9.224;2022-11-18T10:57:47;9.60;99.90
3256;DHT22;1640;48.504;9.224;2022-11-18T11:00:43;9.60;99.90
3256;DHT22;1640;48.504;9.224;2022-11-18T11:03:34;9.70;99.90
3256;DHT22;1640;48.504;9.224;2022-11-18T11:06:21;9.90;99.90
3256;DHT22;1640;48.504;9.224;2022-11-18T11:08:52;10.00;99.90
3256;DHT22;1640;48.504;9.224;2022-11-18T11:11:25;10.10;99.90
3256;DHT22;1640;48.504;9.224;2022-11-18T11:14:05;10.20;99.90
3256;DHT22;1640;48.504;9.224;2022-11-18T11:16:38;10.30;99.90
3256;DHT22;1640;48.504;9.224;2022-11-18T11:19:09;10.40;99.90
3256;DHT22;1640;48.504;9.224;2022-11-18T11:21:38;10.30;99.90
3256;DHT22;1640;48.504;9.224;2022-11-18T11:24:11;10.30;99.90
3256;DHT22;1640;48.504;9.224;2022-11-18T11:26:45;10.30;99.90
3256;DHT22;1640;48.504;9.224;2022-11-18T11:29:22;10.20;99.90
3256;DHT22;1640;48.504;9.224;2022-11-18T11:31:58;10.20;99.90
3256;DHT22;1640;48.504;9.224;2022-11-18T11:34:35;10.10;99.90
3256;DHT22;1640;48.504;9.224;2022-11-18T11:37:16;10.10;99.90
3256;DHT22;1640;48.504;9.224;2022-11-18T11:40:15;10.10;99.90
3256;DHT22;1640;48.504;9.224;2022-11-18T11:42:52;10.00;99.90
3256;DHT22;1640;48.504;9.224;2022-11-18T11:45:27;10.30;99.90
3256;DHT22;1640;48.504;9.224;2022-11-18T11:48:22;10.50;99.90
3256;DHT22;1640;48.504;9.224;2022-11-18T11:50:54;10.60;99.90
3256;DHT22;1640;48.504;9.224;2022-11-18T11:53:43;10.60;99.90
3256;DHT22;1640;48.504;9.224;2022-11-18T11:56:20;10.60;7.30
3256;DHT22;1640;48.504;9.224;2022-11-18T11:59:07;10.60;99.90
3256;DHT22;1640;48.504;9.224;2022-11-18T12:01:46;10.50;8.30
3256;DHT22;1640;48.504;9.224;2022-11-18T12:04:27;10.40;4.70
3256;DHT22;1640;48.504;9.224;2022-11-18T12:06:57;10.60;99.90
3256;DHT22;1640;48.504;9.224;2022-11-18T12:09:34;10.80;99.90
3256;DHT22;1640;48.504;9.224;2022-11-18T12:12:08;10.90;12.20
3256;DHT22;1640;48.504;9.224;2022-11-18T12:14:55;10.80;19.10
3256;DHT22;1640;48.504;9.224;2022-11-18T12:17:28;10.80;10.30
3256;DHT22;1640;48.504;9.224;2022-11-18T12:19:57;10.90;10.60
3256;DHT22;1640;48.504;9.224;2022-11-18T12:23:09;10.90;8.20
3256;DHT22;1640;48.504;9.224;2022-11-18T12:25:54;10.90;14.80
3256;DHT22;1640;48.504;9.224;2022-11-18T12:28:26;10.80;23.10
3256;DHT22;1640;48.504;9.224;2022-11-18T12:34:31;10.40;30.70
3256;DHT22;1640;48.504;9.224;2022-11-18T12:40:03;9.90;11.30
3256;DHT22;1640;48.504;9.224;2022-11-18T12:42:42;9.90;3.00
3256;DHT22;1640;48.504;9.224;2022-11-18T12:45:49;9.60;99.90
3256;DHT22;1640;48.504;9.224;2022-11-18T12:48:38;9.20;99.90
3256;DHT22;1640;48.504;9.224;2022-11-18T12:54:26;9.00;99.90
3256;DHT22;1640;48.504;9.224;2022-11-18T12:56:56;9.10;99.90
3256;DHT22;1640;48.504;9.224;2022-11-18T12:59:29;9.10;99.90
3256;DHT22;1640;48.504;9.224;2022-11-18T13:04:45;9.10;99.90
3256;DHT22;1640;48.504;9.224;2022-11-18T13:07:13;9.20;99.90
3256;DHT22;1640;48.504;9.224;2022-11-18T13:09:55;9.20;99.90
3256;DHT22;1640;48.504;9.224;2022-11-18T13:12:25;9.00;99.90
3256;DHT22;1640;48.504;9.224;2022-11-18T13:14:54;8.90;99.90
3256;DHT22;1640;48.504;9.224;2022-11-18T13:17:41;8.80;99.90
3256;DHT22;1640;48.504;9.224;2022-11-18T13:20:22;8.70;99.90
3256;DHT22;1640;48.504;9.224;2022-11-18T13:22:53;8.70;99.90
3256;DHT22;1640;48.504;9.224;2022-11-18T13:25:38;8.80;99.90
3256;DHT22;1640;48.504;9.224;2022-11-18T13:28:17;8.80;99.90
3256;DHT22;1640;48.504;9.224;2022-11-18T13:30:51;9.10;99.90
3256;DHT22;1640;48.504;9.224;2022-11-18T13:33:22;9.30;99.90
3256;DHT22;1640;48.504;9.224;2022-11-18T13:35:50;9.50;99.90
3256;DHT22;1640;48.504;9.224;2022-11-18T13:38:21;9.70;99.90
3256;DHT22;1640;48.504;9.224;2022-11-18T13:40:50;9.80;99.90
3256;DHT22;1640;48.504;9.224;2022-11-18T13:43:38;9.90;99.90
3256;DHT22;1640;48.504;9.224;2022-11-18T13:46:10;10.00;99.90
3256;DHT22;1640;48.504;9.224;2022-11-18T13:48:45;9.90;19.00
3256;DHT22;1640;48.504;9.224;2022-11-18T13:51:14;9.90;4.40
3256;DHT22;1640;48.504;9.224;2022-11-18T13:53:42;9.90;3.30
3256;DHT22;1640;48.504;9.224;2022-11-18T13:56:17;9.90;11.90
3256;DHT22;1640;48.504;9.224;2022-11-18T13:58:53;9.80;7.20
3256;DHT22;1640;48.504;9.224;2022-11-18T14:01:23;9.70;18.00
3256;DHT22;1640;48.504;9.224;2022-11-18T14:03:54;9.70;8.60
3256;DHT22;1640;48.504;9.224;2022-11-18T14:06:25;9.70;11.90
3256;DHT22;1640;48.504;9.224;2022-11-18T14:09:14;9.60;12.30
3256;DHT22;1640;48.504;9.224;2022-11-18T14:11:44;9.70;12.10
3256;DHT22;1640;48.504;9.224;2022-11-18T14:14:27;9.70;17.60
3256;DHT22;1640;48.504;9.224;2022-11-18T14:17:03;9.70;19.40
3256;DHT22;1640;48.504;9.224;2022-11-18T14:19:40;9.60;17.30
3256;DHT22;1640;48.504;9.224;2022-11-18T14:22:14;9.70;23.20
3256;DHT22;1640;48.504;9.224;2022-11-18T14:24:43;9.70;20.90
3256;DHT22;1640;48.504;9.224;2022-11-18T14:27:32;9.60;32.70
3256;DHT22;1640;48.504;9.224;2022-11-18T14:30:02;9.60;35.00
3256;DHT22;1640;48.504;9.224;2022-11-18T14:33:13;9.60;36.90
3256;DHT22;1640;48.504;9.224;2022-11-18T14:35:46;9.70;29.40
3256;DHT22;1640;48.504;9.224;2022-11-18T14:38:16;9.60;24.00
3256;DHT22;1640;48.504;9.224;2022-11-18T14:40:44;9.60;20.10
3256;DHT22;1640;48.504;9.224;2022-11-18T14:43:12;9.50;13.70
3256;DHT22;1640;48.504;9.224;2022-11-18T14:45:40;9.60;25.50
3256;DHT22;1640;48.504;9.224;2022-11-18T14:48:09;9.60;20.30
3256;DHT22;1640;48.504;9.224;2022-11-18T14:50:38;9.50;24.70
3256;DHT22;1640;48.504;9.224;2022-11-18T14:53:08;9.40;27.60
3256;DHT22;1640;48.504;9.224;2022-11-18T14:55:37;9.30;24.90
3256;DHT22;1640;48.504;9.224;2022-11-18T14:58:04;9.20;13.70
3256;DHT22;1640;48.504;9.224;2022-11-18T15:00:32;9.10;15.20
3256;DHT22;1640;48.504;9.224;2022-11-18T15:02:59;9.00;16.40
3256;DHT22;1640;48.504;9.224;2022-11-18T15:05:27;8.90;7.30
3256;DHT22;1640;48.504;9.224;2022-11-18T15:07:55;8.80;11.20
3256;DHT22;1640;48.504;9.224;2022-11-18T15:10:24;8.80;9.20
3256;DHT22;1640;48.504;9.224;2022-11-18T15:12:51;8.80;4.10
3256;DHT22;1640;48.504;9.224;2022-11-18T15:15:19;8.70;0.70
3256;DHT22;1640;48.504;9.224;2022-11-18T15:17:47;8.70;99.90
3256;DHT22;1640;48.504;9.224;2022-11-18T15:20:16;8.80;99.90
3256;DHT22;1640;48.504;9.224;2022-11-18T15:22:44;8.80;99.90
3256;DHT22;1640;48.504;9.224;2022-11-18T15:25:11;8.80;99.90
3256;DHT22;1640;48.504;9.224;2022-11-18T15:27:41;8.80;99.90
3256;DHT22;1640;48.504;9.224;2022-11-18T15:30:11;8.90;99.90
3256;DHT22;1640;48.504;9.224;2022-11-18T15:32:41;8.90;99.90
3256;DHT22;1640;48.504;9.224;2022-11-18T15:35:10;8.80;99.90
3256;DHT22;1640;48.504;9.224;2022-11-18T15:37:39;8.80;99.90
3256;DHT22;1640;48.504;9.224;2022-11-18T15:40:07;8.80;99.90
3256;DHT22;1640;48.504;9.224;2022-11-18T15:42:36;8.80;99.90
3256;DHT22;1640;48.504;9.224;2022-11-18T15:45:06;8.80;99.90
3256;DHT22;1640;48.504;9.224;2022-11-18T15:47:34;8.70;99.90
3256;DHT22;1640;48.504;9.224;2022-11-18T15:50:01;8.70;99.90
3256;DHT22;1640;48.504;9.224;2022-11-18T15:52:29;8.70;99.90
3256;DHT22;1640;48.504;9.224;2022-11-18T15:54:57;8.60;99.90
3256;DHT22;1640;48.504;9.224;2022-11-18T15:57:24;8.60;99.90
3256;DHT22;1640;48.504;9.224;2022-11-18T15:59:52;8.50;99.90
3256;DHT22;1640;48.504;9.224;2022-11-18T16:02:21;8.40;99.90
3256;DHT22;1640;48.504;9.224;2022-11-18T16:04:49;8.30;99.90
3256;DHT22;1640;48.504;9.224;2022-11-18T16:07:16;8.20;99.90
3256;DHT22;1640;48.504;9.224;2022-11-18T16:09:44;8.10;99.90
3256;DHT22;1640;48.504;9.224;2022-11-18T16:12:29;8.00;99.90
3256;DHT22;1640;48.504;9.224;2022-11-18T16:15:16;8.10;99.90
3256;DHT22;1640;48.504;9.224;2022-11-18T16:18:03;8.00;99.90
3256;DHT22;1640;48.504;9.224;2022-11-18T16:20:30;7.90;99.90
3256;DHT22;1640;48.504;9.224;2022-11-18T16:22:58;7.90;99.90
3256;DHT22;1640;48.504;9.224;2022-11-18T16:25:26;7.80;99.90
3256;DHT22;1640;48.504;9.224;2022-11-18T16:27:54;7.80;99.90
3256;DHT22;1640;48.504;9.224;2022-11-18T16:30:22;7.70;99.90
3256;DHT22;1640;48.504;9.224;2022-11-18T16:33:08;7.70;99.90
3256;DHT22;1640;48.504;9.224;2022-11-18T16:35:36;7.50;99.90
3256;DHT22;1640;48.504;9.224;2022-11-18T16:38:07;7.50;99.90
3256;DHT22;1640;48.504;9.224;2022-11-18T16:40:34;7.40;99.90
3256;DHT22;1640;48.504;9.224;2022-11-18T16:43:02;7.40;99.90
3256;DHT22;1640;48.504;9.224;2022-11-18T16:45:30;7.40;99.90
3256;DHT22;1640;48.504;9.224;2022-11-18T16:47:57;7.50;99.90
3256;DHT22;1640;48.504;9.224;2022-11-18T16:50:26;7.40;99.90
3256;DHT22;1640;48.504;9.224;2022-11-18T16:52:54;7.50;99.90
3256;DHT22;1640;48.504;9.224;2022-11-18T16:55:23;7.40;99.90
3256;DHT22;1640;48.504;9.224;2022-11-18T16:57:51;7.40;99.90
3256;DHT22;1640;48.504;9.224;2022-11-18T17:00:19;7.40;99.90
3256;DHT22;1640;48.504;9.224;2022-11-18T17:02:47;7.40;99.90
3256;DHT22;1640;48.504;9.224;2022-11-18T17:05:14;7.40;99.90
3256;DHT22;1640;48.504;9.224;2022-11-18T17:07:43;7.40;99.90
3256;DHT22;1640;48.504;9.224;2022-11-18T17:10:11;7.50;99.90
3256;DHT22;1640;48.504;9.224;2022-11-18T17:12:46;7.50;99.90
3256;DHT22;1640;48.504;9.224;2022-11-18T17:15:14;7.70;99.90
3256;DHT22;1640;48.504;9.224;2022-11-18T17:17:41;7.70;99.90
3256;DHT22;1640;48.504;9.224;2022-11-18T17:20:09;7.60;99.90
3256;DHT22;1640;48.504;9.224;2022-11-18T17:22:37;7.60;99.90